Time;durP1;ratioP1;P1;durP2;ratioP2;P2;SDS_P1;SDS_P2;PMS_P1;PMS_P2;Temp;Humidity;BMP_temperature;BMP_pressure;BME280_temperature;BME280_humidity;BME280_pressure;Samples;Min_cycle;Max_cycle;Signal;HPM_P1;HPM_P2
2023/08/04 00:01:00;;;;;;;14.65;6.28;;;;;;;14.47;100.00;100859.25;4987413;28;20042;-74
2023/08/04 00:03:27;;;;;;;12.82;5.95;;;;;;;14.44;100.00;100870.88;4969028;28;20042;-73
2023/08/04 00:05:54;;;;;;;17.30;6.07;;;;;;;14.42;100.00;100861.25;4957582;28;20053;-72
2023/08/04 00:08:22;;;;;;;11.48;5.72;;;;;;;14.41;100.00;100867.47;4979688;28;20094;-72
2023/08/04 00:10:49;;;;;;;13.68;6.50;;;;;;;14.39;100.00;100862.25;4986318;28;20064;-72
2023/08/04 00:13:17;;;;;;;13.93;6.65;;;;;;;14.37;100.00;100876.53;4968999;28;20594;-72
2023/08/04 00:15:44;;;;;;;13.68;6.45;;;;;;;14.37;100.00;100868.56;4985569;28;20085;-73
2023/08/04 00:18:11;;;;;;;15.57;6.55;;;;;;;14.36;100.00;100867.69;4986720;28;20068;-73
2023/08/04 00:20:38;;;;;;;14.38;6.63;;;;;;;14.34;100.00;100871.34;4985588;28;20485;-72
2023/08/04 00:23:05;;;;;;;13.30;6.15;;;;;;;14.33;100.00;100878.47;4967091;28;20039;-72
2023/08/04 00:25:32;;;;;;;15.70;6.75;;;;;;;14.32;100.00;100889.13;4977992;28;20109;-73
2023/08/04 00:27:59;;;;;;;14.27;6.68;;;;;;;14.31;100.00;100885.63;4986417;28;20050;-72
2023/08/04 00:30:26;;;;;;;19.70;7.13;;;;;;;14.30;100.00;100875.94;4984710;28;20098;-72
2023/08/04 00:32:54;;;;;;;17.00;7.28;;;;;;;14.27;100.00;100890.19;4985958;28;20106;-73
2023/08/04 00:35:21;;;;;;;12.68;6.50;;;;;;;14.25;100.00;100883.22;4964661;28;20458;-75
2023/08/04 00:37:48;;;;;;;14.43;6.65;;;;;;;14.24;100.00;100890.31;4985155;28;20046;-74
2023/08/04 00:40:16;;;;;;;17.45;7.18;;;;;;;14.23;100.00;100896.56;4986709;28;20501;-75
2023/08/04 00:42:43;;;;;;;20.58;7.32;;;;;;;14.24;100.00;100895.63;4951692;28;20422;-75
2023/08/04 00:45:10;;;;;;;15.00;6.72;;;;;;;14.24;100.00;100889.47;4980243;28;20565;-75
2023/08/04 00:47:39;;;;;;;17.23;6.97;;;;;;;14.27;100.00;100895.50;4967154;28;20045;-75
2023/08/04 00:50:09;;;;;;;16.35;6.78;;;;;;;14.27;100.00;100897.28;4967645;28;20050;-74
2023/08/04 00:52:39;;;;;;;13.55;6.38;;;;;;;14.27;100.00;100895.50;4986102;28;20094;-75
2023/08/04 00:55:08;;;;;;;14.27;6.60;;;;;;;14.27;100.00;100906.13;4984559;28;20038;-74
2023/08/04 00:57:39;;;;;;;20.92;6.85;;;;;;;14.27;100.00;100900.81;4990235;28;20046;-74
2023/08/04 01:00:07;;;;;;;15.00;7.05;;;;;;;14.25;100.00;100897.34;4988203;28;20425;-76
2023/08/04 01:02:35;;;;;;;13.38;6.40;;;;;;;14.24;100.00;100902.75;4976301;28;20092;-75
2023/08/04 01:05:04;;;;;;;13.70;6.07;;;;;;;14.22;100.00;100896.63;4986085;28;20475;-75
2023/08/04 01:07:44;;;;;;;19.35;6.85;;;;;;;14.19;100.00;100900.28;4985405;28;20122;-75
2023/08/04 01:10:49;;;;;;;18.42;7.03;;;;;;;14.23;100.00;100912.47;4988431;28;20057;-75
2023/08/04 01:13:21;;;;;;;16.92;6.72;;;;;;;14.27;100.00;100913.19;4963629;28;20089;-75
2023/08/04 01:15:52;;;;;;;15.88;6.75;;;;;;;14.31;100.00;100909.47;4972171;28;20117;-75
2023/08/04 01:18:21;;;;;;;15.02;6.28;;;;;;;14.36;100.00;100917.22;4990647;28;20074;-75
2023/08/04 01:20:50;;;;;;;14.10;6.32;;;;;;;14.38;100.00;100920.69;4982347;28;20042;-75
2023/08/04 01:23:18;;;;;;;19.50;6.50;;;;;;;14.38;100.00;100916.22;4987774;28;20046;-74
2023/08/04 01:25:46;;;;;;;14.88;6.45;;;;;;;14.39;100.00;100915.28;4989340;28;20524;-75
2023/08/04 01:28:16;;;;;;;17.10;7.35;;;;;;;14.42;100.00;100922.25;4987485;28;20158;-75
2023/08/04 01:30:48;;;;;;;20.13;6.95;;;;;;;14.43;100.00;100922.19;4972803;28;20045;-73
2023/08/04 01:33:16;;;;;;;17.58;6.70;;;;;;;14.43;100.00;100918.66;4986406;28;20050;-73
2023/08/04 01:35:43;;;;;;;12.55;6.65;;;;;;;14.42;100.00;100925.78;4969387;28;20486;-73
2023/08/04 01:38:10;;;;;;;11.38;6.05;;;;;;;14.42;100.00;100930.19;4987676;28;20049;-74
2023/08/04 01:40:39;;;;;;;14.50;6.65;;;;;;;14.41;100.00;100924.03;4967134;28;20133;-73
2023/08/04 01:43:06;;;;;;;17.42;6.82;;;;;;;14.41;100.00;100928.47;4986944;28;20046;-73
2023/08/04 01:45:33;;;;;;;21.48;7.70;;;;;;;14.42;100.00;100930.19;4988090;28;20043;-73
2023/08/04 01:48:00;;;;;;;16.13;6.90;;;;;;;14.41;100.00;100928.47;4971078;28;20526;-74
2023/08/04 01:50:27;;;;;;;15.25;6.57;;;;;;;14.42;100.00;100925.78;4988119;28;20137;-74
2023/08/04 01:52:56;;;;;;;13.85;6.70;;;;;;;14.42;100.00;100930.19;4979524;28;20486;-76
2023/08/04 01:55:23;;;;;;;19.23;7.30;;;;;;;14.39;100.00;100931.22;4966126;28;20043;-75
2023/08/04 01:57:50;;;;;;;16.40;6.68;;;;;;;14.37;100.00;100935.72;4986593;28;20046;-75
2023/08/04 02:00:18;;;;;;;17.20;7.28;;;;;;;14.34;100.00;100930.56;4987147;28;20050;-74
2023/08/04 02:02:45;;;;;;;15.02;6.88;;;;;;;14.32;100.00;100928.88;4984511;28;20541;-75
2023/08/04 02:05:14;;;;;;;15.43;7.18;;;;;;;14.29;100.00;100929.91;4968596;28;20133;-74
2023/08/04 02:07:41;;;;;;;16.77;7.28;;;;;;;14.29;100.00;100933.41;4970637;28;20046;-75
2023/08/04 02:10:09;;;;;;;20.05;7.30;;;;;;;14.28;100.00;100934.34;4945412;28;20046;-75
2023/08/04 02:12:36;;;;;;;16.30;7.68;;;;;;;14.29;100.00;100936.03;4963107;28;20050;-75
2023/08/04 02:15:05;;;;;;;17.42;7.68;;;;;;;14.26;100.00;100936.19;4981824;28;20042;-76
2023/08/04 02:17:34;;;;;;;16.40;7.72;;;;;;;14.27;100.00;100945.88;4987774;28;20153;-74
2023/08/04 02:20:05;;;;;;;16.17;6.95;;;;;;;14.28;100.00;100944.97;4984133;28;20043;-75
2023/08/04 02:22:32;;;;;;;15.45;7.40;;;;;;;14.31;100.00;100937.78;4938644;28;20050;-74
2023/08/04 02:24:59;;;;;;;18.38;7.57;;;;;;;14.31;100.00;100941.31;4983343;28;20494;-74
2023/08/04 02:27:26;;;;;;;15.48;7.53;;;;;;;14.34;100.00;100943.81;4990064;28;20129;-74
2023/08/04 02:29:53;;;;;;;17.05;7.25;;;;;;;14.36;100.00;100941.09;4987102;28;20060;-73
2023/08/04 02:32:20;;;;;;;17.38;7.03;;;;;;;14.38;100.00;100950.69;4986235;28;20052;-73
2023/08/04 02:34:50;;;;;;;17.15;7.47;;;;;;;14.39;100.00;100943.63;4983350;28;20047;-73
2023/08/04 02:37:18;;;;;;;18.85;7.85;;;;;;;14.41;100.00;100944.38;4987358;28;20069;-74
2023/08/04 02:39:45;;;;;;;15.35;7.35;;;;;;;14.44;100.00;100949.56;4988737;28;20121;-74
2023/08/04 02:42:12;;;;;;;15.18;7.38;;;;;;;14.46;100.00;100953.00;4988759;28;20104;-73
2023/08/04 02:44:41;;;;;;;18.25;7.72;;;;;;;14.48;100.00;100952.94;4971624;28;20050;-73
2023/08/04 02:47:08;;;;;;;17.63;7.78;;;;;;;14.50;100.00;100953.72;4977189;28;20195;-74
2023/08/04 02:49:35;;;;;;;23.13;7.90;;;;;;;14.51;100.00;100955.47;4987162;28;20058;-74
2023/08/04 02:52:08;;;;;;;14.88;7.55;;;;;;;14.50;100.00;100953.72;4986618;28;20058;-73
2023/08/04 02:54:36;;;;;;;18.38;7.68;;;;;;;14.50;100.00;100959.88;4973812;28;20060;-73
2023/08/04 02:57:03;;;;;;;17.58;7.70;;;;;;;14.52;100.00;100958.03;4990068;28;20046;-74
2023/08/04 02:59:30;;;;;;;18.55;7.68;;;;;;;14.54;100.00;100952.69;4985635;28;20041;-74
2023/08/04 03:01:57;;;;;;;16.30;7.78;;;;;;;14.54;100.00;100964.13;4980933;28;20046;-73
2023/08/04 03:04:24;;;;;;;18.73;7.78;;;;;;;14.54;100.00;100958.84;4983689;28;20047;-74
2023/08/04 03:06:51;;;;;;;18.33;8.80;;;;;;;14.55;100.00;100963.22;4985368;28;20042;-74
2023/08/04 03:09:18;;;;;;;19.27;8.20;;;;;;;14.56;100.00;100967.59;4986658;28;20042;-74
2023/08/04 03:11:45;;;;;;;15.38;7.68;;;;;;;14.56;100.00;100977.31;4985442;28;20034;-75
2023/08/04 03:14:13;;;;;;;19.58;8.02;;;;;;;14.55;100.00;100968.50;4969519;28;20461;-76
2023/08/04 03:16:40;;;;;;;14.50;7.97;;;;;;;14.55;100.00;100965.00;4986374;28;20041;-76
2023/08/04 03:19:07;;;;;;;18.40;8.07;;;;;;;14.57;100.00;100973.75;4967204;28;20042;-76
2023/08/04 03:21:34;;;;;;;19.65;7.95;;;;;;;14.56;100.00;100978.19;4970407;28;20053;-75
2023/08/04 03:24:01;;;;;;;21.38;8.40;;;;;;;14.57;100.00;100977.28;4968165;28;20136;-75
2023/08/04 03:26:28;;;;;;;18.83;8.45;;;;;;;14.57;100.00;100987.88;4970811;28;20050;-74
2023/08/04 03:28:55;;;;;;;14.73;7.82;;;;;;;14.56;100.00;100982.63;4988821;28;20088;-75
2023/08/04 03:31:25;;;;;;;15.90;7.90;;;;;;;14.55;100.00;100983.59;4967539;28;20700;-74
2023/08/04 03:33:52;;;;;;;13.10;8.10;;;;;;;14.55;100.00;100988.88;4986795;28;20046;-74
2023/08/04 03:36:20;;;;;;;16.05;8.68;;;;;;;14.55;100.00;100987.09;4984871;28;20066;-74
2023/08/04 03:38:47;;;;;;;23.05;9.05;;;;;;;14.55;100.00;100991.53;4986238;28;20132;-74
2023/08/04 03:41:14;;;;;;;18.00;9.43;;;;;;;14.55;100.00;100995.03;4969436;28;20050;-74
2023/08/04 03:43:41;;;;;;;18.60;9.20;;;;;;;14.54;100.00;100993.31;4967851;28;20045;-74
2023/08/04 03:46:08;;;;;;;20.90;9.70;;;;;;;14.53;100.00;100988.09;4988646;28;20034;-74
2023/08/04 03:48:35;;;;;;;21.30;9.48;;;;;;;14.47;100.00;100986.56;4984627;28;20046;-74
2023/08/04 03:51:02;;;;;;;19.45;9.10;;;;;;;14.46;100.00;100990.16;4986707;28;20732;-75
2023/08/04 03:53:29;;;;;;;18.95;8.98;;;;;;;14.40;100.00;100985.97;4966196;28;20046;-74
2023/08/04 03:55:56;;;;;;;17.52;10.13;;;;;;;14.38;100.00;100981.69;4986683;28;20041;-74
2023/08/04 03:58:23;;;;;;;19.95;9.15;;;;;;;14.35;100.00;100987.94;4967099;28;20050;-74
2023/08/04 04:00:50;;;;;;;20.33;9.50;;;;;;;14.34;100.00;100983.59;4986927;28;20750;-75
2023/08/04 04:03:18;;;;;;;18.58;9.73;;;;;;;14.32;100.00;100985.47;4983779;28;20050;-74
2023/08/04 04:05:46;;;;;;;17.23;9.65;;;;;;;14.32;100.00;100989.88;4984826;28;20042;-75
2023/08/04 04:08:13;;;;;;;17.92;10.20;;;;;;;14.33;100.00;100987.19;4985122;28;20050;-74
2023/08/04 04:10:40;;;;;;;20.15;10.20;;;;;;;14.34;100.00;100980.94;4978631;28;20098;-74
2023/08/04 04:13:07;;;;;;;17.73;9.40;;;;;;;14.35;100.00;100989.75;4981970;28;20054;-74
2023/08/04 04:15:34;;;;;;;24.15;9.30;;;;;;;14.37;100.00;101001.16;4969111;28;20046;-73
2023/08/04 04:18:01;;;;;;;20.50;9.82;;;;;;;14.39;100.00;100994.84;4967842;28;20050;-74
2023/08/04 04:20:30;;;;;;;24.05;9.70;;;;;;;14.40;100.00;101003.66;4986370;28;20038;-75
2023/08/04 04:22:57;;;;;;;19.50;9.60;;;;;;;14.41;100.00;101000.97;4985229;28;20043;-74
2023/08/04 04:25:24;;;;;;;17.83;10.02;;;;;;;14.42;100.00;101008.00;4986955;28;20510;-74
2023/08/04 04:27:53;;;;;;;18.30;9.68;;;;;;;14.45;100.00;101010.50;4987185;28;20469;-74
2023/08/04 04:30:20;;;;;;;17.50;9.23;;;;;;;14.45;100.00;101007.84;4985108;28;20066;-74
2023/08/04 04:32:47;;;;;;;18.35;9.48;;;;;;;14.46;100.00;101014.03;4988099;28;20046;-74
2023/08/04 04:35:15;;;;;;;21.10;8.63;;;;;;;14.43;100.00;101012.38;4989144;28;20058;-74
2023/08/04 04:37:42;;;;;;;17.10;8.80;;;;;;;14.39;100.00;101024.03;4990115;28;20073;-73
2023/08/04 04:40:09;;;;;;;19.23;9.02;;;;;;;14.36;100.00;101023.31;4987095;28;20050;-75
2023/08/04 04:42:38;;;;;;;20.65;9.25;;;;;;;14.34;100.00;101025.16;4989522;28;20047;-75
2023/08/04 04:45:06;;;;;;;20.38;9.43;;;;;;;14.34;100.00;101027.81;4972607;28;20125;-74
2023/08/04 04:47:33;;;;;;;16.58;9.48;;;;;;;14.33;100.00;101029.63;4990182;28;20065;-73
2023/08/04 04:50:00;;;;;;;20.23;9.38;;;;;;;14.40;100.00;101027.53;4982503;28;20065;-74
2023/08/04 04:52:37;;;;;;;17.35;9.52;;;;;;;14.45;100.00;101025.56;4980059;28;20065;-74
2023/08/04 04:55:05;;;;;;;18.42;9.05;;;;;;;14.54;100.00;101032.25;4989299;28;20047;-74
2023/08/04 04:57:37;;;;;;;22.02;9.63;;;;;;;14.65;100.00;101031.78;4989663;28;20060;-75
2023/08/04 05:00:06;;;;;;;16.13;9.32;;;;;;;14.68;100.00;101034.34;4989739;28;20054;-76
2023/08/04 05:02:33;;;;;;;21.20;9.15;;;;;;;14.69;100.00;101028.94;4988300;28;20050;-76
2023/08/04 05:05:00;;;;;;;19.42;8.90;;;;;;;14.70;100.00;101035.13;4990865;28;20049;-76
2023/08/04 05:07:27;;;;;;;19.65;9.55;;;;;;;14.74;100.00;101048.19;4971132;28;20070;-76
2023/08/04 05:09:55;;;;;;;17.33;9.30;;;;;;;14.79;100.00;101034.72;4984321;28;20038;-75
2023/08/04 05:12:22;;;;;;;14.98;9.25;;;;;;;14.83;100.00;101038.94;4985110;28;20078;-75
2023/08/04 05:14:49;;;;;;;17.75;9.57;;;;;;;14.87;100.00;101043.19;4990365;28;20054;-75
2023/08/04 05:17:17;;;;;;;21.13;9.55;;;;;;;14.91;100.00;101042.09;4988424;28;20045;-75
2023/08/04 05:19:44;;;;;;;22.50;10.38;;;;;;;14.94;100.00;101040.25;4990016;28;20031;-75
2023/08/04 05:22:12;;;;;;;18.33;9.35;;;;;;;14.98;100.00;101045.34;4988256;28;20141;-74
2023/08/04 05:24:39;;;;;;;20.45;10.07;;;;;;;15.35;100.00;101048.09;4988083;28;20070;-73
2023/08/04 05:27:07;;;;;;;19.08;10.18;;;;;;;15.60;100.00;101053.09;4983064;28;20042;-75
2023/08/04 05:29:34;;;;;;;19.85;10.15;;;;;;;15.61;100.00;101049.50;4972518;28;20117;-74
2023/08/04 05:32:02;;;;;;;19.05;9.00;;;;;;;15.58;100.00;101059.44;4994803;28;20042;-72
2023/08/04 05:34:29;;;;;;;17.67;9.27;;;;;;;15.52;100.00;101053.47;4969993;28;20080;-71
2023/08/04 05:36:56;;;;;;;17.50;9.38;;;;;;;15.47;100.00;101058.16;4984648;28;20041;-79
2023/08/04 05:39:23;;;;;;;16.70;9.23;;;;;;;15.50;100.00;101059.78;4988130;28;20042;-74
2023/08/04 05:41:50;;;;;;;16.55;9.45;;;;;;;15.66;100.00;101058.13;4986995;28;20113;-75
2023/08/04 05:44:17;;;;;;;17.02;9.43;;;;;;;15.72;100.00;101070.25;4978967;28;20406;-74
2023/08/04 05:46:44;;;;;;;18.50;9.25;;;;;;;15.93;100.00;101076.34;4972524;28;20042;-75
2023/08/04 05:49:11;;;;;;;19.25;9.05;;;;;;;17.68;95.36;101071.69;4976329;28;20068;-75
2023/08/04 05:51:38;;;;;;;21.00;8.70;;;;;;;18.65;88.26;101077.69;4985796;28;20043;-75
2023/08/04 05:54:06;;;;;;;30.08;11.38;;;;;;;19.72;83.69;101079.91;4985434;28;20049;-72
2023/08/04 05:56:33;;;;;;;14.50;7.80;;;;;;;21.66;77.74;101072.91;4988619;28;20042;-72
2023/08/04 05:59:03;;;;;;;13.70;6.68;;;;;;;22.34;72.83;101078.56;4982794;28;20056;-72
2023/08/04 06:01:30;;;;;;;11.48;6.28;;;;;;;20.98;74.92;101085.78;4990044;28;20046;-72
2023/08/04 06:03:57;;;;;;;17.92;6.30;;;;;;;19.77;78.70;101087.63;4987970;28;20050;-72
2023/08/04 06:06:25;;;;;;;12.85;6.88;;;;;;;18.87;81.96;101091.41;4990805;28;20041;-72
2023/08/04 06:08:52;;;;;;;13.10;7.05;;;;;;;18.26;85.76;101091.47;4975242;28;20046;-71
2023/08/04 06:11:21;;;;;;;13.20;6.72;;;;;;;17.83;87.57;101088.63;4986206;28;20526;-72
2023/08/04 06:13:49;;;;;;;11.73;6.03;;;;;;;17.50;88.23;101097.56;4984024;28;20046;-72
2023/08/04 06:16:16;;;;;;;12.25;6.50;;;;;;;17.25;90.28;101098.91;4991436;28;20043;-71
2023/08/04 06:18:43;;;;;;;13.25;6.75;;;;;;;17.07;91.36;101100.78;4969457;28;20133;-72
2023/08/04 06:21:10;;;;;;;15.73;7.20;;;;;;;16.96;92.57;101108.47;4987817;28;20042;-72
2023/08/04 06:23:41;;;;;;;14.70;6.78;;;;;;;16.90;93.68;101110.47;4987519;28;20050;-72
2023/08/04 06:26:08;;;;;;;12.73;6.65;;;;;;;16.86;94.29;101108.06;4988848;28;20053;-72
2023/08/04 06:28:35;;;;;;;17.63;7.40;;;;;;;16.87;95.52;101107.13;4981982;28;20506;-71
2023/08/04 06:31:03;;;;;;;17.33;7.35;;;;;;;16.91;96.41;101111.34;4988501;28;20495;-73
2023/08/04 06:33:30;;;;;;;13.30;7.00;;;;;;;16.96;96.56;101119.97;4966111;28;20148;-71
2023/08/04 06:35:57;;;;;;;15.82;7.72;;;;;;;16.99;95.54;101121.63;4986340;28;20097;-71
2023/08/04 06:38:25;;;;;;;12.82;7.78;;;;;;;16.96;95.00;101124.44;4966411;28;20042;-71
2023/08/04 06:40:53;;;;;;;15.45;7.57;;;;;;;16.92;95.91;101129.06;4960989;28;20057;-71
2023/08/04 06:43:20;;;;;;;11.35;7.68;;;;;;;16.92;96.56;101129.06;4969770;28;20427;-71
2023/08/04 06:45:49;;;;;;;17.52;8.40;;;;;;;16.92;97.24;101129.91;4986388;28;20070;-72
2023/08/04 06:48:16;;;;;;;14.10;7.35;;;;;;;16.94;96.70;101129.00;4989379;28;20050;-71
2023/08/04 06:50:43;;;;;;;13.05;6.82;;;;;;;16.94;96.87;101135.16;4969999;28;20078;-71
2023/08/04 06:53:11;;;;;;;15.85;7.38;;;;;;;16.96;97.44;101124.44;4989028;28;20070;-70
2023/08/04 06:55:38;;;;;;;13.95;7.50;;;;;;;16.99;96.45;101135.81;4971042;28;20789;-72
2023/08/04 06:58:13;;;;;;;13.38;7.55;;;;;;;16.99;95.42;101127.81;4978486;28;20172;-72
2023/08/04 07:00:41;;;;;;;15.27;7.45;;;;;;;17.00;95.33;101140.19;4986954;28;20706;-72
2023/08/04 07:03:11;;;;;;;13.32;7.05;;;;;;;17.01;94.77;101141.91;4972165;28;20506;-72
2023/08/04 07:05:38;;;;;;;15.23;7.80;;;;;;;17.05;96.31;101140.78;4988175;28;20118;-72
2023/08/04 07:08:05;;;;;;;13.68;7.95;;;;;;;17.15;96.15;101142.97;4987508;28;20457;-70
2023/08/04 07:10:35;;;;;;;14.63;7.75;;;;;;;17.21;96.53;101150.66;4971011;28;20058;-71
2023/08/04 07:13:02;;;;;;;17.05;7.90;;;;;;;17.31;96.23;101138.56;4988214;28;20562;-70
2023/08/04 07:15:31;;;;;;;13.52;7.22;;;;;;;17.49;95.60;101149.16;4970458;28;20462;-72
2023/08/04 07:17:59;;;;;;;14.82;7.40;;;;;;;17.68;95.95;101149.84;4987992;28;20117;-71
2023/08/04 07:20:27;;;;;;;14.73;7.03;;;;;;;17.90;94.15;101150.47;4987700;28;20072;-71
2023/08/04 07:22:55;;;;;;;11.45;6.50;;;;;;;18.04;91.07;101149.72;4986154;28;20121;-71
2023/08/04 07:25:22;;;;;;;17.05;6.88;;;;;;;18.04;90.05;101150.56;4979454;28;20054;-71
2023/08/04 07:27:49;;;;;;;13.40;5.82;;;;;;;18.11;90.51;101157.25;4977536;28;20106;-72
2023/08/04 07:30:16;;;;;;;13.55;6.20;;;;;;;18.22;90.50;101159.34;4987620;28;20046;-74
2023/08/04 07:32:43;;;;;;;15.93;5.47;;;;;;;18.36;89.97;101155.03;4986503;28;20055;-71
2023/08/04 07:35:11;;;;;;;11.65;4.47;;;;;;;18.53;88.14;101156.69;4986547;28;20047;-70
2023/08/04 07:37:39;;;;;;;11.23;4.35;;;;;;;18.66;87.41;101160.34;4986505;28;20058;-75
2023/08/04 07:40:07;;;;;;;10.27;4.45;;;;;;;18.83;88.55;101158.47;4958229;28;20054;-75
2023/08/04 07:42:34;;;;;;;18.65;5.93;;;;;;;19.01;87.63;101160.09;4967966;28;20548;-75
2023/08/04 07:45:01;;;;;;;12.98;4.70;;;;;;;19.11;86.80;101159.50;4975530;28;20133;-75
2023/08/04 07:47:28;;;;;;;22.63;6.78;;;;;;;19.15;84.94;101159.22;4969656;28;20415;-75
2023/08/04 07:49:55;;;;;;;7.13;3.65;;;;;;;19.08;84.21;101163.22;4983885;28;20077;-75
2023/08/04 07:52:22;;;;;;;7.88;3.90;;;;;;;19.01;85.03;101161.88;4980152;28;20113;-75
2023/08/04 07:54:50;;;;;;;9.18;3.58;;;;;;;18.95;86.11;101163.09;4982639;28;20042;-75
2023/08/04 07:57:18;;;;;;;8.82;3.92;;;;;;;18.90;84.31;101171.38;4974525;28;20146;-75
2023/08/04 07:59:46;;;;;;;9.70;3.83;;;;;;;18.86;85.81;101171.66;4963352;28;20046;-74
2023/08/04 08:02:13;;;;;;;9.18;4.00;;;;;;;18.89;86.81;101174.16;4963491;28;20046;-74
2023/08/04 08:04:40;;;;;;;6.15;3.38;;;;;;;18.92;84.94;101176.63;4984420;28;20042;-74
2023/08/04 08:07:07;;;;;;;7.80;3.75;;;;;;;18.92;84.11;101173.97;4957432;28;20050;-76
2023/08/04 08:09:34;;;;;;;8.75;3.45;;;;;;;18.91;83.72;101170.41;4968181;28;20057;-75
2023/08/04 08:12:02;;;;;;;8.85;3.38;;;;;;;18.95;83.72;101181.81;4982900;28;20884;-75
2023/08/04 08:14:30;;;;;;;11.27;3.50;;;;;;;19.00;83.22;101182.41;4966819;28;20104;-75
2023/08/04 08:16:57;;;;;;;7.05;3.35;;;;;;;19.06;83.37;101181.19;4984963;28;20493;-75
2023/08/04 08:19:25;;;;;;;10.85;3.80;;;;;;;19.16;82.69;101179.66;4986579;28;20510;-75
2023/08/04 08:21:53;;;;;;;10.95;3.88;;;;;;;19.40;83.73;101181.75;4987282;28;20128;-75
2023/08/04 08:24:20;;;;;;;25.00;4.40;;;;;;;19.68;82.45;101182.72;4985428;28;20038;-74
2023/08/04 08:26:48;;;;;;;13.73;4.68;;;;;;;19.80;81.62;101181.06;4986961;28;20034;-76
2023/08/04 08:29:15;;;;;;;9.35;3.80;;;;;;;19.82;81.82;101192.53;4986545;28;20042;-76
2023/08/04 08:31:42;;;;;;;7.63;3.67;;;;;;;19.84;79.46;101187.94;4986650;28;20057;-75
2023/08/04 08:34:09;;;;;;;11.02;3.78;;;;;;;19.77;79.91;101191.94;4986907;28;20058;-75
2023/08/04 08:36:36;;;;;;;6.60;3.58;;;;;;;19.71;79.42;101190.53;4984943;28;20569;-76
2023/08/04 08:39:04;;;;;;;7.60;3.45;;;;;;;19.67;78.50;101197.03;4989193;28;20042;-75
2023/08/04 08:41:31;;;;;;;8.20;3.70;;;;;;;19.66;79.33;101198.84;4959075;28;20503;-75
2023/08/04 08:43:58;;;;;;;7.00;3.72;;;;;;;19.73;78.57;101196.63;4984133;28;20598;-75
2023/08/04 08:46:26;;;;;;;7.53;3.60;;;;;;;19.79;79.50;101206.94;4988326;28;20042;-75
2023/08/04 08:48:58;;;;;;;6.47;3.50;;;;;;;19.90;78.53;101208.97;4992542;28;20042;-77
2023/08/04 08:51:27;;;;;;;7.82;3.95;;;;;;;19.98;77.76;101211.16;4987753;28;20318;-76
2023/08/04 08:53:56;;;;;;;6.47;3.55;;;;;;;20.07;77.31;101212.38;4985340;28;20054;-76
2023/08/04 08:56:25;;;;;;;8.98;4.03;;;;;;;20.10;78.48;101207.66;4985575;28;20214;-77
2023/08/04 08:58:53;;;;;;;7.22;3.58;;;;;;;20.14;78.52;101211.03;4984773;28;20140;-74
2023/08/04 09:01:21;;;;;;;7.32;3.65;;;;;;;20.15;78.74;101213.59;4987584;28;20046;-74
2023/08/04 09:03:48;;;;;;;7.35;3.65;;;;;;;20.14;78.12;101213.72;4986615;28;20043;-74
2023/08/04 09:06:15;;;;;;;8.50;3.70;;;;;;;20.14;77.04;101219.06;4980613;28;20046;-77
2023/08/04 09:08:42;;;;;;;9.80;3.60;;;;;;;20.12;77.61;101210.28;4973295;28;20093;-74
2023/08/04 09:11:11;;;;;;;7.15;3.72;;;;;;;20.21;80.16;101216.81;4986573;28;20125;-74
2023/08/04 09:13:45;;;;;;;13.68;3.70;;;;;;;20.36;78.32;101215.84;4970103;28;20038;-75
2023/08/04 09:16:12;;;;;;;;;;;;;;;20.42;79.26;101217.25;4987280;28;20049;-74
2023/08/04 09:18:40;;;;;;;7.68;3.65;;;;;;;20.54;78.91;101218.25;4971395;28;20012;-74
2023/08/04 09:21:07;;;;;;;6.38;3.10;;;;;;;20.61;74.61;101220.41;4996118;28;20134;-74
2023/08/04 09:23:48;;;;;;;7.28;3.13;;;;;;;20.63;73.55;101217.63;4985948;28;20105;-74
2023/08/04 09:26:16;;;;;;;4.85;3.33;;;;;;;20.63;72.07;101225.66;4989639;28;20108;-74
2023/08/04 09:28:44;;;;;;;7.82;3.00;;;;;;;20.68;72.94;101225.34;4974254;28;20043;-74
2023/08/04 09:31:13;;;;;;;5.45;2.80;;;;;;;20.76;71.52;101225.72;4981579;28;20042;-73
2023/08/04 09:33:43;;;;;;;5.95;2.75;;;;;;;20.75;71.72;101219.53;4990123;28;20962;-74
2023/08/04 09:36:17;;;;;;;6.15;2.92;;;;;;;20.82;73.39;101219.97;4989808;28;20048;-75
2023/08/04 09:38:44;;;;;;;5.20;2.25;;;;;;;20.91;70.67;101222.03;4955813;28;20038;-74
2023/08/04 09:41:15;;;;;;;4.72;2.40;;;;;;;20.97;72.17;101219.88;4982372;28;20100;-73
2023/08/04 09:43:49;;;;;;;5.35;2.28;;;;;;;21.35;71.99;101214.53;4971309;28;20101;-74
2023/08/04 09:46:17;;;;;;;7.43;2.35;;;;;;;21.44;71.58;101213.03;4985243;28;20046;-74
2023/08/04 09:48:47;;;;;;;4.00;1.50;;;;;;;21.39;68.23;101217.84;4977353;28;20066;-74
2023/08/04 09:51:19;;;;;;;3.63;1.60;;;;;;;21.18;66.93;101217.53;4987329;28;20045;-74
2023/08/04 09:53:49;;;;;;;5.18;1.58;;;;;;;21.27;68.53;101216.91;4988262;28;20051;-74
2023/08/04 09:56:20;;;;;;;3.15;1.65;;;;;;;21.47;67.92;101228.06;4989783;28;20133;-74
2023/08/04 09:58:48;;;;;;;3.45;1.85;;;;;;;21.79;67.85;101228.47;4981169;28;20522;-75
2023/08/04 10:01:20;;;;;;;4.53;1.63;;;;;;;21.75;66.61;101236.84;4988054;28;20031;-74
2023/08/04 10:03:57;;;;;;;5.40;1.70;;;;;;;21.61;65.83;101232.47;4983169;28;20038;-73
2023/08/04 10:06:26;;;;;;;5.15;2.00;;;;;;;21.24;66.01;101230.50;4990445;28;20074;-74
2023/08/04 10:08:55;;;;;;;5.95;1.90;;;;;;;21.18;66.82;101228.28;4990913;28;20097;-74
2023/08/04 10:11:23;;;;;;;3.90;1.73;;;;;;;21.14;66.46;101227.63;4991303;28;20046;-73
2023/08/04 10:13:56;;;;;;;4.57;2.08;;;;;;;21.26;66.29;101236.63;4968362;28;20122;-74
2023/08/04 10:16:32;;;;;;;4.72;1.90;;;;;;;21.40;66.67;101228.50;4973858;28;20542;-74
2023/08/04 10:19:09;;;;;;;3.22;1.80;;;;;;;21.67;64.66;101226.69;4990323;28;20048;-75
2023/08/04 10:21:40;;;;;;;4.93;2.00;;;;;;;21.88;65.66;101224.28;4972496;28;20111;-74
2023/08/04 10:24:10;;;;;;;4.63;1.85;;;;;;;21.98;66.00;101238.75;4989429;28;20052;-74
2023/08/04 10:27:20;;;;;;;2.42;1.00;;;;;;;21.64;63.17;101243.84;4988014;28;20046;-74
2023/08/04 10:30:11;;;;;;;2.10;0.90;;;;;;;21.11;63.96;101233.19;4953055;28;20061;-74
2023/08/04 10:32:40;;;;;;;3.70;1.40;;;;;;;20.66;65.73;101237.97;4989376;28;20057;-74
2023/08/04 10:35:20;;;;;;;3.08;1.20;;;;;;;20.30;68.12;101243.84;4986708;28;20044;-74
2023/08/04 10:37:53;;;;;;;1.58;1.10;;;;;;;20.02;68.21;101247.44;4979848;28;20074;-74
2023/08/04 10:40:36;;;;;;;2.72;1.30;;;;;;;19.67;70.37;101247.84;4989236;28;20042;-74
2023/08/04 10:43:08;;;;;;;3.65;1.10;;;;;;;19.37;72.38;101248.78;4977527;28;20477;-75
2023/08/04 10:46:10;;;;;;;3.70;1.08;;;;;;;19.06;74.14;101251.47;4975902;28;20116;-75
2023/08/04 10:48:40;;;;;;;2.13;1.10;;;;;;;18.91;75.49;101255.06;4965936;28;20055;-75
2023/08/04 10:51:08;;;;;;;2.53;1.40;;;;;;;18.84;76.84;101253.66;4982567;28;20050;-75
2023/08/04 10:53:37;;;;;;;3.53;1.50;;;;;;;18.87;78.36;101254.34;4978536;28;20046;-74
2023/08/04 10:56:07;;;;;;;5.93;1.90;;;;;;;19.28;78.70;101252.03;4985237;28;20227;-75
2023/08/04 10:58:35;;;;;;;3.65;1.70;;;;;;;19.63;78.99;101252.53;4967913;28;20038;-75
2023/08/04 11:01:03;;;;;;;2.92;1.75;;;;;;;20.04;78.81;101252.72;4987715;28;20140;-76
2023/08/04 11:03:36;;;;;;;6.00;2.25;;;;;;;20.36;77.24;101258.66;4972735;28;20458;-75
2023/08/04 11:06:03;;;;;;;4.18;1.90;;;;;;;20.62;73.76;101248.91;4978619;28;20043;-74
2023/08/04 11:08:32;;;;;;;6.13;1.90;;;;;;;20.67;73.86;101248.63;4987937;28;20124;-73
2023/08/04 11:10:59;;;;;;;3.28;1.70;;;;;;;20.75;73.86;101248.13;4988201;28;20041;-76
2023/08/04 11:13:27;;;;;;;6.97;1.90;;;;;;;20.74;75.15;101254.47;4970029;28;20039;-74
2023/08/04 11:15:54;;;;;;;5.05;1.70;;;;;;;20.79;74.84;101257.66;4988483;28;20518;-74
2023/08/04 11:18:25;;;;;;;3.03;1.30;;;;;;;21.09;74.13;101248.50;4988175;28;20425;-74
2023/08/04 11:21:03;;;;;;;3.72;1.42;;;;;;;21.19;69.82;101259.47;4987929;28;20148;-73